AFR74WK EGLL-LFPG
Flight info
| Callsign | AFR74WK |
|---|---|
| Flight time | 0h 38m |
| Altitude | 25000 |
| Route | DCT MAXIT Y803 MID UL612 BOGNA DCT HARDY UM605 BIBAX BIBAX9V |
| Aircraft | A320/M-SDE3FGHIRWY/LB1 |
Departure
| Time | 2026-05-07 19:58 |
|---|---|
| Airport | London Heathrow Airport (EGLL) |
Arrival
| Time | 2026-05-07 20:36 |
|---|---|
| Airport | Charles de Gaulle International Airport (LFPG) |
| Time | Latitude | Longitude | Altitude | Speed | Heading |
|---|---|---|---|---|---|
| 2026-05-07 19:20 | 51.47115 | -0.48005 | 91 ft | 0 kts | 273° |
| 2026-05-07 19:44 | 51.47115 | -0.47996 | 86 ft | 4 kts | 272° |
| 2026-05-07 19:44 | 51.47115 | -0.47953 | 86 ft | 4 kts | 263° |
| 2026-05-07 19:45 | 51.47120 | -0.47912 | 87 ft | 4 kts | 248° |
| 2026-05-07 19:45 | 51.47134 | -0.47878 | 89 ft | 4 kts | 207° |
| 2026-05-07 19:45 | 51.47145 | -0.47871 | 90 ft | 0 kts | 180° |
| 2026-05-07 19:49 | 51.47144 | -0.47871 | 90 ft | 2 kts | 180° |
| 2026-05-07 19:49 | 51.47097 | -0.47871 | 87 ft | 8 kts | 178° |
| 2026-05-07 19:49 | 51.47043 | -0.47869 | 86 ft | 8 kts | 180° |
| 2026-05-07 19:49 | 51.46993 | -0.47869 | 86 ft | 7 kts | 180° |
| 2026-05-07 19:50 | 51.46951 | -0.47869 | 86 ft | 5 kts | 179° |
| 2026-05-07 19:50 | 51.46920 | -0.47869 | 86 ft | 4 kts | 179° |
| 2026-05-07 19:50 | 51.46861 | -0.47868 | 86 ft | 13 kts | 180° |
| 2026-05-07 19:50 | 51.46766 | -0.47882 | 86 ft | 14 kts | 209° |
| 2026-05-07 19:51 | 51.46747 | -0.47958 | 87 ft | 3 kts | 269° |
| 2026-05-07 19:51 | 51.46746 | -0.47980 | 89 ft | 1 kts | 264° |
| 2026-05-07 19:51 | 51.46745 | -0.47991 | 88 ft | 1 kts | 263° |
| 2026-05-07 19:51 | 51.46743 | -0.48041 | 86 ft | 5 kts | 267° |
| 2026-05-07 19:52 | 51.46742 | -0.48093 | 86 ft | 4 kts | 269° |
| 2026-05-07 19:52 | 51.46742 | -0.48121 | 86 ft | 0 kts | 269° |
| 2026-05-07 19:52 | 51.46737 | -0.48165 | 86 ft | 6 kts | 248° |
| 2026-05-07 19:53 | 51.46709 | -0.48201 | 87 ft | 4 kts | 202° |
| 2026-05-07 19:53 | 51.46684 | -0.48210 | 88 ft | 3 kts | 188° |
| 2026-05-07 19:53 | 51.46668 | -0.48212 | 88 ft | 2 kts | 184° |
| 2026-05-07 19:53 | 51.46648 | -0.48212 | 86 ft | 3 kts | 179° |
| 2026-05-07 19:54 | 51.46629 | -0.48212 | 86 ft | 2 kts | 180° |
| 2026-05-07 19:54 | 51.46615 | -0.48213 | 87 ft | 4 kts | 181° |
| 2026-05-07 19:54 | 51.46603 | -0.48213 | 87 ft | 0 kts | 181° |
| 2026-05-07 19:56 | 51.46600 | -0.48213 | 87 ft | 3 kts | 181° |
| 2026-05-07 19:56 | 51.46589 | -0.48213 | 87 ft | 6 kts | 181° |
| 2026-05-07 19:56 | 51.46530 | -0.48214 | 88 ft | 8 kts | 181° |
| 2026-05-07 19:56 | 51.46484 | -0.48186 | 89 ft | 7 kts | 132° |
| 2026-05-07 19:57 | 51.46480 | -0.48132 | 88 ft | 0 kts | 92° |
| 2026-05-07 19:57 | 51.46476 | -0.47996 | 87 ft | 48 kts | 93° |
| 2026-05-07 19:57 | 51.46487 | -0.47000 | 91 ft | 130 kts | 89° |
| 2026-05-07 19:58 | 51.46495 | -0.45467 | 90 ft | 183 kts | 92° |
| 2026-05-07 19:58 | 51.46534 | -0.43452 | 842 ft | 182 kts | 90° |
| 2026-05-07 19:58 | 51.46524 | -0.41354 | 1725 ft | 191 kts | 94° |
| 2026-05-07 19:58 | 51.46420 | -0.39221 | 2461 ft | 208 kts | 101° |
| 2026-05-07 19:59 | 51.45698 | -0.37128 | 3082 ft | 232 kts | 140° |
| 2026-05-07 19:59 | 51.44174 | -0.35995 | 3917 ft | 248 kts | 163° |
| 2026-05-07 19:59 | 51.42456 | -0.35393 | 4610 ft | 261 kts | 168° |
| 2026-05-07 19:59 | 51.40627 | -0.35095 | 5437 ft | 267 kts | 187° |
| 2026-05-07 20:00 | 51.38869 | -0.36069 | 5882 ft | 272 kts | 210° |
| 2026-05-07 20:00 | 51.37239 | -0.37631 | 5991 ft | 271 kts | 209° |
| 2026-05-07 20:00 | 51.35575 | -0.39042 | 6144 ft | 274 kts | 207° |
| 2026-05-07 20:00 | 51.33875 | -0.40386 | 7070 ft | 273 kts | 206° |
| 2026-05-07 20:01 | 51.32167 | -0.41710 | 7962 ft | 275 kts | 207° |
| 2026-05-07 20:01 | 51.30410 | -0.43065 | 8859 ft | 277 kts | 207° |
| 2026-05-07 20:01 | 51.28671 | -0.44411 | 9750 ft | 279 kts | 208° |
| 2026-05-07 20:01 | 51.26907 | -0.45782 | 10410 ft | 289 kts | 208° |
| 2026-05-07 20:02 | 51.25028 | -0.47269 | 10644 ft | 313 kts | 208° |
| 2026-05-07 20:02 | 51.23023 | -0.48869 | 10829 ft | 336 kts | 208° |
| 2026-05-07 20:02 | 51.20929 | -0.50467 | 10943 ft | 330 kts | 202° |
| 2026-05-07 20:02 | 51.18706 | -0.51218 | 11079 ft | 333 kts | 184° |
| 2026-05-07 20:03 | 51.16340 | -0.50699 | 11240 ft | 359 kts | 162° |
| 2026-05-07 20:03 | 51.14130 | -0.48667 | 11742 ft | 372 kts | 141° |
| 2026-05-07 20:03 | 51.12205 | -0.45867 | 12440 ft | 376 kts | 139° |
| 2026-05-07 20:03 | 51.10273 | -0.42999 | 13160 ft | 379 kts | 139° |
| 2026-05-07 20:04 | 51.08370 | -0.40161 | 13871 ft | 381 kts | 139° |
| 2026-05-07 20:04 | 51.06400 | -0.37224 | 14492 ft | 384 kts | 139° |
| 2026-05-07 20:04 | 51.04460 | -0.34345 | 15081 ft | 388 kts | 139° |
| 2026-05-07 20:04 | 51.02472 | -0.31406 | 15676 ft | 391 kts | 139° |
| 2026-05-07 20:05 | 51.00489 | -0.28477 | 16240 ft | 395 kts | 139° |
| 2026-05-07 20:05 | 50.98460 | -0.25483 | 16793 ft | 398 kts | 139° |
| 2026-05-07 20:05 | 50.96411 | -0.22464 | 17379 ft | 402 kts | 139° |
| 2026-05-07 20:05 | 50.94343 | -0.19421 | 17957 ft | 406 kts | 139° |
| 2026-05-07 20:06 | 50.92270 | -0.16374 | 18490 ft | 409 kts | 139° |
| 2026-05-07 20:06 | 50.90181 | -0.13305 | 18963 ft | 412 kts | 139° |
| 2026-05-07 20:06 | 50.88073 | -0.10208 | 19454 ft | 415 kts | 139° |
| 2026-05-07 20:06 | 50.85970 | -0.07122 | 19942 ft | 418 kts | 139° |
| 2026-05-07 20:07 | 50.83841 | -0.04003 | 20392 ft | 420 kts | 139° |
| 2026-05-07 20:07 | 50.81672 | -0.00832 | 20846 ft | 423 kts | 139° |
| 2026-05-07 20:07 | 50.79516 | 0.02316 | 21285 ft | 426 kts | 139° |
| 2026-05-07 20:07 | 50.77339 | 0.05489 | 21714 ft | 428 kts | 139° |
| 2026-05-07 20:08 | 50.75136 | 0.08695 | 22130 ft | 431 kts | 139° |
| 2026-05-07 20:08 | 50.72927 | 0.11902 | 22536 ft | 433 kts | 140° |
| 2026-05-07 20:08 | 50.70687 | 0.15151 | 22930 ft | 436 kts | 140° |
| 2026-05-07 20:08 | 50.68451 | 0.18390 | 23065 ft | 436 kts | 140° |
| 2026-05-07 20:09 | 50.66224 | 0.21611 | 23079 ft | 436 kts | 140° |
| 2026-05-07 20:09 | 50.63974 | 0.24863 | 23068 ft | 436 kts | 140° |
| 2026-05-07 20:09 | 50.61744 | 0.28088 | 23083 ft | 436 kts | 140° |
| 2026-05-07 20:10 | 50.57288 | 0.34520 | 23079 ft | 436 kts | 140° |
| 2026-05-07 20:10 | 50.55049 | 0.37738 | 23076 ft | 436 kts | 140° |
| 2026-05-07 20:10 | 50.52803 | 0.40963 | 23077 ft | 436 kts | 140° |
| 2026-05-07 20:10 | 50.50546 | 0.44192 | 23081 ft | 436 kts | 140° |
| 2026-05-07 20:11 | 50.48312 | 0.47385 | 23079 ft | 436 kts | 140° |
| 2026-05-07 20:11 | 50.46054 | 0.50560 | 23071 ft | 436 kts | 141° |
| 2026-05-07 20:11 | 50.43714 | 0.53648 | 23072 ft | 436 kts | 143° |
| 2026-05-07 20:11 | 50.41352 | 0.56620 | 23058 ft | 436 kts | 144° |
| 2026-05-07 20:12 | 50.38990 | 0.59518 | 23081 ft | 436 kts | 144° |
| 2026-05-07 20:12 | 50.36559 | 0.62475 | 23069 ft | 436 kts | 144° |
| 2026-05-07 20:12 | 50.34186 | 0.65381 | 23075 ft | 436 kts | 144° |
| 2026-05-07 20:12 | 50.31806 | 0.68326 | 23074 ft | 436 kts | 144° |
| 2026-05-07 20:13 | 50.29438 | 0.71279 | 23070 ft | 436 kts | 143° |
| 2026-05-07 20:13 | 50.27067 | 0.74253 | 23073 ft | 436 kts | 143° |
| 2026-05-07 20:13 | 50.24664 | 0.77273 | 23078 ft | 436 kts | 143° |
| 2026-05-07 20:13 | 50.22335 | 0.80198 | 23075 ft | 436 kts | 143° |
| 2026-05-07 20:14 | 50.19968 | 0.83163 | 23073 ft | 436 kts | 143° |
| 2026-05-07 20:14 | 50.17588 | 0.86136 | 23078 ft | 436 kts | 143° |
| 2026-05-07 20:14 | 50.15215 | 0.89084 | 23078 ft | 436 kts | 144° |
| 2026-05-07 20:14 | 50.12811 | 0.92056 | 23065 ft | 445 kts | 144° |
| 2026-05-07 20:15 | 50.10356 | 0.95086 | 23076 ft | 455 kts | 143° |
| 2026-05-07 20:15 | 50.07868 | 0.98163 | 23073 ft | 461 kts | 143° |
| 2026-05-07 20:15 | 50.05222 | 1.01059 | 23069 ft | 459 kts | 151° |
| 2026-05-07 20:15 | 50.02393 | 1.03338 | 23074 ft | 457 kts | 156° |
| 2026-05-07 20:16 | 49.99611 | 1.05430 | 22949 ft | 440 kts | 156° |
| 2026-05-07 20:16 | 49.96862 | 1.07505 | 22667 ft | 425 kts | 156° |
| 2026-05-07 20:17 | 49.89683 | 1.12917 | 21897 ft | 392 kts | 156° |
| 2026-05-07 20:17 | 49.87242 | 1.14753 | 21628 ft | 384 kts | 156° |
| 2026-05-07 20:17 | 49.84878 | 1.16517 | 21351 ft | 380 kts | 157° |
| 2026-05-07 20:17 | 49.82489 | 1.18292 | 20900 ft | 376 kts | 157° |
| 2026-05-07 20:18 | 49.80134 | 1.20040 | 20435 ft | 373 kts | 157° |
| 2026-05-07 20:18 | 49.77798 | 1.21780 | 19981 ft | 371 kts | 156° |
| 2026-05-07 20:18 | 49.75480 | 1.23508 | 19516 ft | 368 kts | 156° |
| 2026-05-07 20:18 | 49.73180 | 1.25223 | 19059 ft | 366 kts | 157° |
| 2026-05-07 20:19 | 49.70919 | 1.26908 | 18622 ft | 364 kts | 156° |
| 2026-05-07 20:19 | 49.68633 | 1.28611 | 18159 ft | 362 kts | 156° |
| 2026-05-07 20:19 | 49.66374 | 1.30291 | 17678 ft | 359 kts | 156° |
| 2026-05-07 20:19 | 49.64106 | 1.31971 | 17211 ft | 357 kts | 156° |
| 2026-05-07 20:20 | 49.61899 | 1.33604 | 16758 ft | 354 kts | 156° |
| 2026-05-07 20:20 | 49.59658 | 1.35264 | 16295 ft | 352 kts | 156° |
| 2026-05-07 20:20 | 49.57494 | 1.36868 | 15850 ft | 351 kts | 156° |
| 2026-05-07 20:20 | 49.55288 | 1.38499 | 15421 ft | 348 kts | 156° |
| 2026-05-07 20:21 | 49.53110 | 1.40109 | 15010 ft | 346 kts | 156° |
| 2026-05-07 20:21 | 49.50950 | 1.41703 | 14590 ft | 344 kts | 156° |
| 2026-05-07 20:21 | 49.48777 | 1.43304 | 14177 ft | 342 kts | 156° |
| 2026-05-07 20:21 | 49.46636 | 1.44875 | 13749 ft | 340 kts | 156° |
| 2026-05-07 20:22 | 49.44508 | 1.46433 | 13286 ft | 338 kts | 156° |
| 2026-05-07 20:22 | 49.42381 | 1.47990 | 12842 ft | 336 kts | 156° |
| 2026-05-07 20:22 | 49.40278 | 1.49532 | 12387 ft | 334 kts | 156° |
| 2026-05-07 20:22 | 49.38193 | 1.51061 | 11871 ft | 334 kts | 156° |
| 2026-05-07 20:23 | 49.36125 | 1.52576 | 11513 ft | 324 kts | 156° |
| 2026-05-07 20:23 | 49.34160 | 1.54017 | 11293 ft | 304 kts | 156° |
| 2026-05-07 20:23 | 49.32329 | 1.55521 | 10822 ft | 298 kts | 144° |
| 2026-05-07 20:23 | 49.30878 | 1.57749 | 10578 ft | 296 kts | 125° |
| 2026-05-07 20:24 | 49.29976 | 1.60615 | 10340 ft | 296 kts | 105° |
| 2026-05-07 20:24 | 49.29701 | 1.63716 | 10097 ft | 295 kts | 94° |
| 2026-05-07 20:24 | 49.29533 | 1.66854 | 9889 ft | 294 kts | 100° |
| 2026-05-07 20:24 | 49.28844 | 1.69736 | 9671 ft | 293 kts | 123° |
| 2026-05-07 20:25 | 49.27564 | 1.72158 | 9451 ft | 293 kts | 133° |
| 2026-05-07 20:25 | 49.26202 | 1.74476 | 9244 ft | 292 kts | 133° |
| 2026-05-07 20:25 | 49.24819 | 1.76806 | 9019 ft | 291 kts | 133° |
| 2026-05-07 20:25 | 49.23479 | 1.79054 | 8819 ft | 289 kts | 133° |
| 2026-05-07 20:26 | 49.22131 | 1.81320 | 8653 ft | 288 kts | 133° |
| 2026-05-07 20:26 | 49.20789 | 1.83581 | 8517 ft | 287 kts | 133° |
| 2026-05-07 20:26 | 49.19446 | 1.85845 | 8388 ft | 287 kts | 133° |
| 2026-05-07 20:26 | 49.18106 | 1.88103 | 8252 ft | 286 kts | 133° |
| 2026-05-07 20:27 | 49.16765 | 1.90362 | 8130 ft | 285 kts | 133° |
| 2026-05-07 20:27 | 49.15429 | 1.92608 | 7997 ft | 285 kts | 133° |
| 2026-05-07 20:27 | 49.14103 | 1.94829 | 7869 ft | 284 kts | 133° |
| 2026-05-07 20:27 | 49.12775 | 1.97055 | 7484 ft | 285 kts | 132° |
| 2026-05-07 20:28 | 49.11437 | 1.99301 | 7075 ft | 284 kts | 132° |
| 2026-05-07 20:28 | 49.10119 | 2.01510 | 6690 ft | 281 kts | 132° |
| 2026-05-07 20:28 | 49.08801 | 2.03719 | 6265 ft | 280 kts | 131° |
| 2026-05-07 20:28 | 49.07488 | 2.05920 | 5691 ft | 284 kts | 132° |
| 2026-05-07 20:29 | 49.06176 | 2.08120 | 5421 ft | 271 kts | 132° |
| 2026-05-07 20:29 | 49.04949 | 2.10172 | 5259 ft | 249 kts | 132° |
| 2026-05-07 20:29 | 49.03832 | 2.12035 | 5143 ft | 233 kts | 132° |
| 2026-05-07 20:29 | 49.02777 | 2.13791 | 5049 ft | 218 kts | 132° |
| 2026-05-07 20:30 | 49.01775 | 2.15458 | 4957 ft | 207 kts | 132° |
| 2026-05-07 20:30 | 49.00967 | 2.17240 | 4877 ft | 205 kts | 112° |
| 2026-05-07 20:30 | 49.00653 | 2.19243 | 4719 ft | 191 kts | 92° |
| 2026-05-07 20:30 | 49.00734 | 2.21213 | 4449 ft | 180 kts | 85° |
| 2026-05-07 20:31 | 49.00838 | 2.23033 | 4211 ft | 164 kts | 85° |
| 2026-05-07 20:31 | 49.00934 | 2.24716 | 4026 ft | 153 kts | 85° |
| 2026-05-07 20:31 | 49.01022 | 2.26286 | 3805 ft | 146 kts | 85° |
| 2026-05-07 20:31 | 49.01108 | 2.27805 | 3613 ft | 144 kts | 85° |
| 2026-05-07 20:32 | 49.01193 | 2.29314 | 3419 ft | 143 kts | 85° |
| 2026-05-07 20:32 | 49.01278 | 2.30827 | 3228 ft | 142 kts | 85° |
| 2026-05-07 20:32 | 49.01361 | 2.32317 | 3035 ft | 141 kts | 85° |
| 2026-05-07 20:32 | 49.01444 | 2.33798 | 2841 ft | 140 kts | 85° |
| 2026-05-07 20:33 | 49.01527 | 2.35285 | 2651 ft | 139 kts | 85° |
| 2026-05-07 20:33 | 49.01607 | 2.36733 | 2462 ft | 139 kts | 85° |
| 2026-05-07 20:33 | 49.01688 | 2.38191 | 2280 ft | 138 kts | 85° |
| 2026-05-07 20:33 | 49.01769 | 2.39645 | 2092 ft | 137 kts | 85° |
| 2026-05-07 20:34 | 49.01849 | 2.41098 | 1908 ft | 136 kts | 85° |
| 2026-05-07 20:34 | 49.01928 | 2.42537 | 1725 ft | 136 kts | 85° |
| 2026-05-07 20:34 | 49.02007 | 2.43970 | 1533 ft | 136 kts | 86° |
| 2026-05-07 20:34 | 49.02085 | 2.45399 | 1351 ft | 135 kts | 85° |
| 2026-05-07 20:35 | 49.02163 | 2.46823 | 1161 ft | 136 kts | 86° |
| 2026-05-07 20:35 | 49.02242 | 2.48269 | 969 ft | 136 kts | 85° |
| 2026-05-07 20:35 | 49.02320 | 2.49703 | 792 ft | 136 kts | 84° |
| 2026-05-07 20:35 | 49.02398 | 2.51134 | 620 ft | 133 kts | 84° |
| 2026-05-07 20:36 | 49.02474 | 2.52532 | 427 ft | 131 kts | 84° |
| 2026-05-07 20:36 | 49.02549 | 2.53869 | 358 ft | 116 kts | 85° |
| 2026-05-07 20:36 | 49.02603 | 2.54918 | 358 ft | 87 kts | 85° |
| 2026-05-07 20:36 | 49.02628 | 2.55385 | 357 ft | 22 kts | 85° |
| 2026-05-07 20:37 | 49.02638 | 2.55582 | 360 ft | 15 kts | 88° |
| 2026-05-07 20:37 | 49.02632 | 2.55747 | 356 ft | 17 kts | 99° |
| 2026-05-07 20:37 | 49.02571 | 2.55906 | 354 ft | 19 kts | 148° |
| 2026-05-07 20:37 | 49.02542 | 2.55932 | 361 ft | 2 kts | 150° |
| 2026-05-07 20:38 | 49.02530 | 2.55939 | 356 ft | 1 kts | 161° |
| 2026-05-07 20:38 | 49.02525 | 2.55941 | 359 ft | 0 kts | 163° |
| 2026-05-07 20:38 | 49.02487 | 2.55947 | 357 ft | 7 kts | 179° |
| 2026-05-07 20:38 | 49.02473 | 2.55948 | 354 ft | 5 kts | 178° |
| 2026-05-07 20:39 | 49.02444 | 2.55949 | 354 ft | 4 kts | 178° |
| 2026-05-07 20:39 | 49.02413 | 2.55952 | 354 ft | 4 kts | 175° |
| 2026-05-07 20:39 | 49.02386 | 2.55956 | 359 ft | 5 kts | 174° |
| 2026-05-07 20:39 | 49.02338 | 2.55963 | 354 ft | 9 kts | 174° |
| 2026-05-07 20:40 | 49.02259 | 2.55973 | 360 ft | 11 kts | 175° |
| 2026-05-07 20:40 | 49.02220 | 2.55978 | 358 ft | 1 kts | 176° |
| 2026-05-07 20:40 | 49.02218 | 2.55978 | 354 ft | 1 kts | 176° |
| 2026-05-07 20:40 | 49.02193 | 2.55981 | 356 ft | 7 kts | 175° |
| 2026-05-07 20:41 | 49.02151 | 2.55990 | 361 ft | 6 kts | 167° |
| 2026-05-07 20:41 | 49.02120 | 2.56015 | 356 ft | 4 kts | 141° |
| 2026-05-07 20:41 | 49.02104 | 2.56045 | 359 ft | 3 kts | 123° |
| 2026-05-07 20:41 | 49.02098 | 2.56069 | 354 ft | 2 kts | 110° |
| 2026-05-07 20:42 | 49.02097 | 2.56082 | 357 ft | 1 kts | 97° |
| 2026-05-07 20:42 | 49.02096 | 2.56089 | 356 ft | 4 kts | 96° |
| 2026-05-07 20:42 | 49.02098 | 2.56157 | 354 ft | 0 kts | 85° |
| 2026-05-07 20:43 | 49.02099 | 2.56160 | 354 ft | 3 kts | 85° |
| 2026-05-07 20:43 | 49.02100 | 2.56178 | 358 ft | 0 kts | 85° |
| 2026-05-07 20:43 | 49.02097 | 2.56235 | 357 ft | 10 kts | 102° |
| 2026-05-07 20:44 | 49.02062 | 2.56304 | 360 ft | 5 kts | 150° |
| 2026-05-07 20:44 | 49.02040 | 2.56317 | 359 ft | 0 kts | 169° |
| 2026-05-07 20:44 | 49.02036 | 2.56318 | 358 ft | 4 kts | 169° |
| 2026-05-07 20:45 | 49.02026 | 2.56349 | 354 ft | 11 kts | 102° |
| 2026-05-07 20:45 | 49.02027 | 2.56511 | 354 ft | 17 kts | 86° |
| 2026-05-07 20:45 | 49.02038 | 2.56698 | 354 ft | 19 kts | 86° |
| 2026-05-07 20:45 | 49.02049 | 2.56902 | 356 ft | 20 kts | 84° |
| 2026-05-07 20:46 | 49.02060 | 2.57123 | 354 ft | 22 kts | 86° |
| 2026-05-07 20:46 | 49.02072 | 2.57356 | 354 ft | 23 kts | 85° |
| 2026-05-07 20:46 | 49.02086 | 2.57606 | 354 ft | 24 kts | 85° |
| 2026-05-07 20:46 | 49.02082 | 2.57804 | 356 ft | 19 kts | 104° |
| 2026-05-07 20:47 | 49.02017 | 2.57986 | 359 ft | 21 kts | 131° |
| 2026-05-07 20:47 | 49.01896 | 2.58092 | 362 ft | 21 kts | 158° |
| 2026-05-07 20:47 | 49.01752 | 2.58128 | 354 ft | 22 kts | 173° |
| 2026-05-07 20:47 | 49.01591 | 2.58151 | 358 ft | 24 kts | 175° |
| 2026-05-07 20:48 | 49.01421 | 2.58173 | 354 ft | 26 kts | 175° |
| 2026-05-07 20:48 | 49.01239 | 2.58198 | 361 ft | 27 kts | 174° |
| 2026-05-07 20:48 | 49.01087 | 2.58217 | 357 ft | 20 kts | 175° |
| 2026-05-07 20:48 | 49.01007 | 2.58227 | 354 ft | 8 kts | 175° |
| 2026-05-07 20:49 | 49.00996 | 2.58229 | 361 ft | 4 kts | 175° |
| 2026-05-07 20:49 | 49.00965 | 2.58234 | 354 ft | 0 kts | 173° |
| 2026-05-07 20:49 | 49.00942 | 2.58258 | 358 ft | 15 kts | 132° |
| 2026-05-07 20:49 | 49.00927 | 2.58422 | 360 ft | 17 kts | 89° |
| 2026-05-07 20:50 | 49.00916 | 2.58602 | 362 ft | 17 kts | 128° |
| 2026-05-07 20:50 | 49.00807 | 2.58676 | 354 ft | 18 kts | 161° |
| 2026-05-07 20:50 | 49.00678 | 2.58705 | 356 ft | 19 kts | 176° |
| 2026-05-07 20:50 | 49.00538 | 2.58718 | 356 ft | 21 kts | 175° |
| 2026-05-07 20:51 | 49.00388 | 2.58736 | 354 ft | 23 kts | 177° |
| 2026-05-07 20:51 | 49.00139 | 2.58765 | 354 ft | 9 kts | 176° |
| 2026-05-07 20:52 | 49.00082 | 2.58765 | 354 ft | 8 kts | 189° |
| 2026-05-07 20:52 | 49.00043 | 2.58729 | 360 ft | 6 kts | 231° |
| 2026-05-07 20:52 | 49.00031 | 2.58675 | 360 ft | 5 kts | 260° |
| 2026-05-07 20:52 | 49.00026 | 2.58613 | 354 ft | 9 kts | 265° |
| 2026-05-07 20:53 | 49.00021 | 2.58498 | 354 ft | 11 kts | 266° |
| 2026-05-07 20:53 | 49.00018 | 2.58391 | 357 ft | 9 kts | 274° |
| 2026-05-07 20:53 | 49.00052 | 2.58327 | 356 ft | 6 kts | 342° |
| 2026-05-07 20:53 | 49.00060 | 2.58325 | 354 ft | 2 kts | 352° |
| 2026-05-07 20:54 | 49.00071 | 2.58334 | 359 ft | 3 kts | 33° |
| 2026-05-07 20:54 | 49.00084 | 2.58374 | 360 ft | 4 kts | 75° |
| 2026-05-07 20:54 | 49.00086 | 2.58383 | 354 ft | 0 kts | 77° |
| 2026-05-07 20:55 | 49.00086 | 2.58389 | 354 ft | 0 kts | 83° |
| 2026-05-07 20:55 | 49.00086 | 2.58394 | 354 ft | 1 kts | 82° |
| 2026-05-07 20:55 | 49.00086 | 2.58397 | 354 ft | 0 kts | 82° |
| 2026-05-07 20:55 | 49.00088 | 2.58412 | 359 ft | 1 kts | 82° |
| 2026-05-07 20:56 | 49.00088 | 2.58420 | 357 ft | 0 kts | 83° |
| 2026-05-07 20:56 | 49.00089 | 2.58428 | 363 ft | 0 kts | 83° |
| 2026-05-07 20:56 | 49.00089 | 2.58429 | 363 ft | 0 kts | 83° |